Time;durP1;ratioP1;P1;durP2;ratioP2;P2;SDS_P1;SDS_P2;PMS_P1;PMS_P2;Temp;Humidity;BMP_temperature;BMP_pressure;BME280_temperature;BME280_humidity;BME280_pressure;Samples;Min_cycle;Max_cycle;Signal;HPM_P1;HPM_P2
2023/08/22 00:02:19;;;;;;;;;;;;;;;23.53;59.00;101681.75;5002659;28;4046;-72
2023/08/22 00:04:45;;;;;;;;;;;;;;;23.52;59.38;101691.81;5001703;28;4173;-73
2023/08/22 00:07:11;;;;;;;;;;;;;;;23.50;59.14;101683.81;4999786;28;4158;-71
2023/08/22 00:09:38;;;;;;;;;;;;;;;23.52;59.49;101686.03;5004043;28;4179;-72
2023/08/22 00:12:05;;;;;;;;;;;;;;;23.49;59.21;101676.50;5002625;28;3987;-72
2023/08/22 00:14:32;;;;;;;;;;;;;;;23.55;59.21;101684.75;5004081;28;4015;-72
2023/08/22 00:16:58;;;;;;;;;;;;;;;23.48;59.50;101686.59;5002705;28;4143;-71
2023/08/22 00:19:24;;;;;;;;;;;;;;;23.48;59.43;101686.59;5006470;28;4063;-72
2023/08/22 00:21:53;;;;;;;;;;;;;;;23.48;59.50;101672.16;4998927;28;4052;-70
2023/08/22 00:24:19;;;;;;;;;;;;;;;23.50;59.50;101665.69;4997737;28;4207;-71
2023/08/22 00:26:46;;;;;;;;;;;;;;;23.53;59.32;101659.38;5000232;28;4468;-72
2023/08/22 00:29:12;;;;;;;;;;;;;;;23.48;59.69;101659.81;5003572;28;4078;-72
2023/08/22 00:31:38;;;;;;;;;;;;;;;23.45;59.74;101661.13;5000584;28;4285;-72
2023/08/22 00:34:05;;;;;;;;;;;;;;;23.46;59.69;101662.63;5000403;28;4001;-71
2023/08/22 00:36:31;;;;;;;;;;;;;;;23.50;59.57;101662.81;5007204;28;3937;-72
2023/08/22 00:38:58;;;;;;;;;;;;;;;23.50;59.60;101665.69;5000358;28;4197;-71
2023/08/22 00:41:24;;;;;;;;;;;;;;;23.49;59.52;101659.16;4995747;28;4207;-72
2023/08/22 00:43:51;;;;;;;;;;;;;;;23.44;59.71;101650.97;4997327;28;3950;-71
2023/08/22 00:46:20;;;;;;;;;;;;;;;23.48;59.67;101640.34;5011827;28;4243;-71
2023/08/22 00:48:46;;;;;;;;;;;;;;;23.44;59.71;101642.31;4996642;28;4038;-71
2023/08/22 00:51:14;;;;;;;;;;;;;;;23.41;59.53;101648.00;5000171;28;4018;-72
2023/08/22 00:53:40;;;;;;;;;;;;;;;23.38;59.63;101642.75;5010706;28;4006;-72
2023/08/22 00:56:06;;;;;;;;;;;;;;;23.41;59.79;101647.25;4998277;28;4167;-72
2023/08/22 00:58:33;;;;;;;;;;;;;;;23.44;59.48;101645.19;5000776;28;4127;-72
2023/08/22 01:01:02;;;;;;;;;;;;;;;23.40;59.77;101646.47;4999518;28;4026;-72
2023/08/22 01:03:28;;;;;;;;;;;;;;;23.42;59.71;101642.94;5000840;28;4353;-72
2023/08/22 01:05:59;;;;;;;;;;;;;;;23.45;59.66;101643.78;4999344;28;4103;-71
2023/08/22 01:08:28;;;;;;;;;;;;;;;23.48;59.38;101646.13;4998606;28;4505;-72
2023/08/22 01:10:55;;;;;;;;;;;;;;;23.44;59.65;101637.25;5005438;28;4171;-72
2023/08/22 01:13:26;;;;;;;;;;;;;;;23.48;59.44;101639.59;5006474;28;4197;-72
2023/08/22 01:15:53;;;;;;;;;;;;;;;23.43;59.62;101644.44;5014976;28;4209;-72
2023/08/22 01:18:19;;;;;;;;;;;;;;;23.43;59.43;101635.75;5000387;28;5029;-71
2023/08/22 01:20:46;;;;;;;;;;;;;;;23.46;59.37;101636.63;5005931;28;4906;-72
2023/08/22 01:23:13;;;;;;;;;;;;;;;23.47;59.45;101638.09;5006408;28;4009;-71
2023/08/22 01:25:40;;;;;;;;;;;;;;;23.42;59.70;101637.16;5004928;28;4044;-72
2023/08/22 01:28:24;;;;;;;;;;;;;;;23.44;59.71;101645.19;5002289;28;4068;-72
2023/08/22 01:30:58;;;;;;;;;;;;;;;23.39;59.82;101627.66;4997359;28;4050;-72
2023/08/22 01:33:25;;;;;;;;;;;;;;;23.39;59.85;101630.56;5005670;28;4387;-72
2023/08/22 01:35:52;;;;;;;;;;;;;;;23.41;59.77;101641.47;4998937;28;4474;-72
2023/08/22 01:38:19;;;;;;;;;;;;;;;23.44;59.79;101645.19;5001967;28;4164;-72
2023/08/22 01:40:45;;;;;;;;;;;;;;;23.44;59.90;101642.31;5002782;28;4089;-72
2023/08/22 01:43:11;;;;;;;;;;;;;;;23.35;59.94;101633.25;5001349;28;4396;-72
2023/08/22 01:45:38;;;;;;;;;;;;;;;23.36;60.26;101634.00;5013953;28;4005;-72
2023/08/22 01:48:05;;;;;;;;;;;;;;;23.40;59.97;101634.19;5004893;28;4573;-72
2023/08/22 01:50:31;;;;;;;;;;;;;;;23.38;59.99;101634.09;5007543;28;4156;-72
2023/08/22 01:52:58;;;;;;;;;;;;;;;23.34;60.22;101634.66;5004362;28;4223;-71
2023/08/22 01:55:24;;;;;;;;;;;;;;;23.37;60.12;101627.56;4998808;28;4057;-72
2023/08/22 01:57:51;;;;;;;;;;;;;;;23.38;60.14;101636.97;5002643;28;4228;-71
2023/08/22 02:00:17;;;;;;;;;;;;;;;23.39;60.06;101624.78;5006533;28;4069;-72
2023/08/22 02:02:44;;;;;;;;;;;;;;;23.44;60.00;101622.06;5002627;28;6247;-71
2023/08/22 02:05:10;;;;;;;;;;;;;;;23.47;59.79;101614.97;5001066;28;4147;-72
2023/08/22 02:07:37;;;;;;;;;;;;;;;23.44;60.02;101616.28;5021213;28;4131;-72
2023/08/22 02:10:06;;;;;;;;;;;;;;;23.38;60.12;101605.91;5006491;28;4090;-72
2023/08/22 02:12:32;;;;;;;;;;;;;;;23.37;60.02;101616.00;4995481;28;4206;-72
2023/08/22 02:14:59;;;;;;;;;;;;;;;23.38;59.99;101614.59;5018824;28;4186;-71
2023/08/22 02:17:25;;;;;;;;;;;;;;;23.41;59.99;101621.97;5003605;28;4314;-73
2023/08/22 02:19:52;;;;;;;;;;;;;;;23.45;60.12;101635.13;5008693;28;4447;-73
2023/08/22 02:22:18;;;;;;;;;;;;;;;23.45;59.89;101623.56;5004028;28;4171;-72
2023/08/22 02:24:45;;;;;;;;;;;;;;;23.42;59.88;101614.78;5004120;28;3986;-72
2023/08/22 02:27:12;;;;;;;;;;;;;;;23.41;60.08;101601.00;5005798;28;4321;-73
2023/08/22 02:29:39;;;;;;;;;;;;;;;23.39;59.99;101610.31;5004416;28;3996;-72
2023/08/22 02:32:05;;;;;;;;;;;;;;;23.39;60.18;101592.97;5014619;28;4010;-72
2023/08/22 02:34:32;;;;;;;;;;;;;;;23.37;60.39;101601.56;5000176;28;4107;-72
2023/08/22 02:36:58;;;;;;;;;;;;;;;23.38;60.31;101603.03;5007805;28;3991;-72
2023/08/22 02:39:25;;;;;;;;;;;;;;;23.33;60.45;101607.16;4995360;28;4240;-72
2023/08/22 02:41:51;;;;;;;;;;;;;;;23.36;60.28;101600.06;4999217;28;4009;-72
2023/08/22 02:44:17;;;;;;;;;;;;;;;23.39;60.10;101616.09;4996063;28;4129;-73
2023/08/22 02:46:44;;;;;;;;;;;;;;;23.41;60.15;101604.63;4994236;28;4336;-72
2023/08/22 02:49:10;;;;;;;;;;;;;;;23.38;59.95;101591.47;4996825;28;4982;-72
2023/08/22 02:51:37;;;;;;;;;;;;;;;23.35;60.18;101592.78;4996454;28;4589;-72
2023/08/22 02:54:04;;;;;;;;;;;;;;;23.35;60.13;101597.81;4999599;28;4194;-72
2023/08/22 02:56:31;;;;;;;;;;;;;;;23.35;60.15;101592.78;4998777;28;4176;-72
2023/08/22 02:58:57;;;;;;;;;;;;;;;23.36;60.36;101588.50;4995017;28;4146;-72
2023/08/22 03:01:23;;;;;;;;;;;;;;;23.35;60.22;101580.50;4994476;28;4199;-73
2023/08/22 03:03:51;;;;;;;;;;;;;;;23.35;60.18;101592.78;4994382;28;4081;-72
2023/08/22 03:06:18;;;;;;;;;;;;;;;23.33;60.47;101586.91;5012949;28;4199;-72
2023/08/22 03:08:44;;;;;;;;;;;;;;;23.34;60.21;101597.09;4998488;28;4081;-72
2023/08/22 03:11:12;;;;;;;;;;;;;;;23.32;60.31;101587.56;5001182;28;4222;-72
2023/08/22 03:13:38;;;;;;;;;;;;;;;23.27;60.50;101586.63;5000920;28;4232;-71
2023/08/22 03:16:05;;;;;;;;;;;;;;;23.28;60.35;101575.84;5007213;28;4225;-72
2023/08/22 03:18:34;;;;;;;;;;;;;;;23.26;60.49;101579.38;5000196;28;4048;-71
2023/08/22 03:21:00;;;;;;;;;;;;;;;23.27;60.23;101575.06;4999926;28;4133;-72
2023/08/22 03:23:27;;;;;;;;;;;;;;;23.28;60.28;101576.56;4996577;28;4139;-72
2023/08/22 03:26:00;;;;;;;;;;;;;;;23.29;60.36;101580.94;5012130;28;4147;-71
2023/08/22 03:28:28;;;;;;;;;;;;;;;23.32;60.45;101588.31;5014028;28;4070;-71
2023/08/22 03:30:57;;;;;;;;;;;;;;;23.30;60.11;101579.56;4997599;28;3997;-71
2023/08/22 03:33:24;;;;;;;;;;;;;;;23.27;60.32;101591.66;5001666;28;4342;-71
2023/08/22 03:35:51;;;;;;;;;;;;;;;23.26;60.33;101596.72;4995099;28;3907;-72
2023/08/22 03:38:17;;;;;;;;;;;;;;;23.30;60.20;101601.94;4996281;28;4379;-72
2023/08/22 03:40:44;;;;;;;;;;;;;;;23.30;60.31;101585.34;5000849;28;4382;-71
2023/08/22 03:43:10;;;;;;;;;;;;;;;23.28;60.24;101576.56;5013070;28;3980;-72
2023/08/22 03:45:38;;;;;;;;;;;;;;;23.26;60.48;101564.91;4995889;28;4120;-72
2023/08/22 03:48:06;;;;;;;;;;;;;;;23.22;60.95;101573.41;5014006;28;4492;-71
2023/08/22 03:50:33;;;;;;;;;;;;;;;23.26;60.50;101567.81;5013304;28;4323;-72
2023/08/22 03:52:59;;;;;;;;;;;;;;;23.26;60.49;101562.03;5010130;28;4496;-69
2023/08/22 03:55:26;;;;;;;;;;;;;;;22.98;60.66;101564.34;4998571;28;4122;-73
2023/08/22 03:57:53;;;;;;;;;;;;;;;22.70;61.44;101566.59;4998830;28;4063;-72
2023/08/22 04:00:19;;;;;;;;;;;;;;;22.91;60.75;101574.09;5003067;28;4218;-72
2023/08/22 04:02:46;;;;;;;;;;;;;;;22.83;60.61;101571.56;4994643;28;4207;-71
2023/08/22 04:05:12;;;;;;;;;;;;;;;22.73;60.83;101565.31;5008413;28;4146;-71
2023/08/22 04:07:39;;;;;;;;;;;;;;;22.66;60.74;101554.88;4996520;28;3924;-71
2023/08/22 04:10:05;;;;;;;;;;;;;;;22.59;61.16;101557.47;5000177;28;4259;-71
2023/08/22 04:12:32;;;;;;;;;;;;;;;22.48;61.67;101546.81;5007532;28;4486;-72
2023/08/22 04:14:58;;;;;;;;;;;;;;;22.45;61.88;101548.13;4993864;28;4369;-71
2023/08/22 04:17:25;;;;;;;;;;;;;;;22.49;61.53;101548.31;5014374;28;4156;-72
2023/08/22 04:19:52;;;;;;;;;;;;;;;22.47;61.21;101539.56;5002918;28;4094;-71
2023/08/22 04:22:18;;;;;;;;;;;;;;;22.45;61.63;101553.91;4998653;28;5453;-72
2023/08/22 04:24:45;;;;;;;;;;;;;;;22.42;61.73;101560.94;4998090;28;4179;-72
2023/08/22 04:27:12;;;;;;;;;;;;;;;22.40;61.95;101560.09;4999366;28;3984;-72
2023/08/22 04:29:38;;;;;;;;;;;;;;;22.39;62.04;101556.47;4993921;28;4207;-72
2023/08/22 04:32:05;;;;;;;;;;;;;;;22.41;61.75;101550.81;4994703;28;4164;-69
2023/08/22 04:34:32;;;;;;;;;;;;;;;22.45;61.52;101548.13;4994475;28;4243;-70
2023/08/22 04:37:01;;;;;;;;;;;;;;;22.38;61.74;101537.69;4993920;28;4178;-71
2023/08/22 04:39:27;;;;;;;;;;;;;;;22.57;61.48;101542.94;4997141;28;4139;-71
2023/08/22 04:42:03;;;;;;;;;;;;;;;22.76;61.06;101535.13;4999137;28;4158;-71
2023/08/22 04:44:41;;;;;;;;;;;;;;;22.84;60.80;101523.22;5021099;28;4167;-71
2023/08/22 04:47:08;;;;;;;;;;;;;;;22.87;60.62;101519.78;5004747;28;4131;-71
2023/08/22 04:49:34;;;;;;;;;;;;;;;22.91;60.44;101522.88;5003844;28;4101;-71
2023/08/22 04:52:00;;;;;;;;;;;;;;;22.95;60.56;101533.84;5005726;28;4105;-71
2023/08/22 04:54:27;;;;;;;;;;;;;;;22.97;60.35;101531.78;5016244;28;4069;-69
2023/08/22 04:56:53;;;;;;;;;;;;;;;22.74;60.73;101523.50;4999389;28;4022;-69
2023/08/22 04:59:21;;;;;;;;;;;;;;;22.67;61.43;101524.59;4999524;28;4431;-68
2023/08/22 05:01:48;;;;;;;;;;;;;;;22.53;61.89;101525.41;5004366;28;4084;-66
2023/08/22 05:04:16;;;;;;;;;;;;;;;22.54;61.93;101514.59;5028238;28;4588;-66
2023/08/22 05:06:42;;;;;;;;;;;;;;;22.51;61.91;101522.44;5008796;28;4062;-66
2023/08/22 05:09:09;;;;;;;;;;;;;;;22.52;61.39;101523.94;5001999;28;4488;-67
2023/08/22 05:11:36;;;;;;;;;;;;;;;22.52;61.63;101515.28;5001336;28;4470;-67
2023/08/22 05:14:03;;;;;;;;;;;;;;;22.52;61.69;101505.88;5011554;28;4408;-66
2023/08/22 05:16:29;;;;;;;;;;;;;;;22.46;61.57;101496.91;5004021;28;4041;-67
2023/08/22 05:18:56;;;;;;;;;;;;;;;22.49;61.47;101504.28;5020201;28;4630;-67
2023/08/22 05:21:23;;;;;;;;;;;;;;;22.61;61.22;101496.22;5012408;28;4530;-68
2023/08/22 05:23:50;;;;;;;;;;;;;;;22.70;61.07;101503.84;5006111;28;4385;-67
2023/08/22 05:26:17;;;;;;;;;;;;;;;22.75;60.84;101511.31;5006667;28;4072;-67
2023/08/22 05:28:44;;;;;;;;;;;;;;;22.79;60.67;101499.19;5011423;28;6551;-68
2023/08/22 05:31:20;;;;;;;;;;;;;;;22.83;60.42;101510.19;5017294;28;4226;-67
2023/08/22 05:33:47;;;;;;;;;;;;;;;22.84;60.26;101512.44;5001395;28;5018;-68
2023/08/22 05:36:14;;;;;;;;;;;;;;;22.87;60.40;101511.13;5009129;28;4475;-67
2023/08/22 05:38:40;;;;;;;;;;;;;;;22.89;60.38;101513.38;5003145;28;4288;-68
2023/08/22 05:41:07;;;;;;;;;;;;;;;22.89;60.49;101514.09;5015617;28;4153;-67
2023/08/22 05:43:33;;;;;;;;;;;;;;;22.90;60.17;101509.81;5019494;28;4303;-67
2023/08/22 05:46:00;;;;;;;;;;;;;;;22.94;60.32;101510.00;5001760;28;4135;-67
2023/08/22 05:48:27;;;;;;;;;;;;;;;22.93;60.15;101502.75;5001508;28;4205;-67
2023/08/22 05:50:54;;;;;;;;;;;;;;;22.93;60.45;101491.19;5020831;28;4113;-67
2023/08/22 05:53:20;;;;;;;;;;;;;;;22.95;60.26;101499.94;5000845;28;4093;-68
2023/08/22 05:55:47;;;;;;;;;;;;;;;22.95;60.28;101508.63;4997007;28;4135;-68
2023/08/22 05:58:14;;;;;;;;;;;;;;;22.97;60.12;101507.94;5015973;28;4143;-67
2023/08/22 06:00:41;;;;;;;;;;;;;;;22.98;60.18;101504.41;5011340;28;4294;-67
2023/08/22 06:03:08;;;;;;;;;;;;;;;23.00;59.96;101524.03;5003880;28;4089;-67
2023/08/22 06:05:35;;;;;;;;;;;;;;;23.00;59.94;101530.53;5016238;28;4047;-68
2023/08/22 06:08:01;;;;;;;;;;;;;;;23.00;60.33;101521.88;5019246;28;4146;-68
2023/08/22 06:10:28;;;;;;;;;;;;;;;22.98;60.01;101527.53;5001163;28;3907;-67
2023/08/22 06:12:54;;;;;;;;;;;;;;;23.04;59.87;101535.00;5006171;28;4370;-67
2023/08/22 06:15:21;;;;;;;;;;;;;;;23.08;60.02;101529.41;5006571;28;4117;-67
2023/08/22 06:17:47;;;;;;;;;;;;;;;23.08;59.97;101517.84;5005630;28;4049;-68
2023/08/22 06:20:15;;;;;;;;;;;;;;;23.07;60.00;101510.59;5003327;28;4349;-68
2023/08/22 06:22:41;;;;;;;;;;;;;;;23.07;60.01;101504.81;5001092;28;4194;-67
2023/08/22 06:25:08;;;;;;;;;;;;;;;23.11;60.03;101499.22;5009693;28;4374;-67
2023/08/22 06:27:34;;;;;;;;;;;;;;;23.09;60.00;101487.56;5006060;28;4381;-67
2023/08/22 06:30:01;;;;;;;;;;;;;;;23.08;60.22;101491.88;4997367;28;4126;-67
2023/08/22 06:32:31;;;;;;;;;;;;;;;23.10;60.44;101497.72;5020390;28;4212;-68
2023/08/22 06:34:59;;;;;;;;;;;;;;;23.10;59.94;101497.72;5009662;28;4241;-67
2023/08/22 06:37:25;;;;;;;;;;;;;;;23.10;60.10;101509.28;5006230;28;4193;-68
2023/08/22 06:39:52;;;;;;;;;;;;;;;23.12;60.04;101507.22;5002626;28;4027;-67
2023/08/22 06:42:19;;;;;;;;;;;;;;;23.14;59.96;101516.00;4995992;28;5972;-67
2023/08/22 06:44:49;;;;;;;;;;;;;;;23.16;59.75;101504.53;4998414;28;4096;-68
2023/08/22 06:47:15;;;;;;;;;;;;;;;23.15;59.88;101496.50;5000844;28;4347;-68
2023/08/22 06:49:42;;;;;;;;;;;;;;;23.20;60.04;101509.72;4999162;28;4100;-67
2023/08/22 06:52:08;;;;;;;;;;;;;;;23.19;59.97;101516.94;5007292;28;4051;-67
2023/08/22 06:54:35;;;;;;;;;;;;;;;23.19;59.97;101511.16;5005825;28;3996;-67
2023/08/22 06:57:01;;;;;;;;;;;;;;;23.21;59.92;101505.47;5002021;28;4402;-67
2023/08/22 06:59:28;;;;;;;;;;;;;;;23.21;59.91;101502.56;5001653;28;4166;-68
2023/08/22 07:01:54;;;;;;;;;;;;;;;23.20;59.77;101495.28;5002022;28;4572;-67
2023/08/22 07:04:20;;;;;;;;;;;;;;;23.24;59.86;101506.28;5000824;28;4058;-67
2023/08/22 07:06:47;;;;;;;;;;;;;;;23.24;59.85;101506.28;4999589;28;4008;-68
2023/08/22 07:09:14;;;;;;;;;;;;;;;23.25;59.84;101514.31;4999048;28;4027;-68
2023/08/22 07:11:40;;;;;;;;;;;;;;;23.24;59.92;101507.03;4998528;28;4117;-68
2023/08/22 07:14:07;;;;;;;;;;;;;;;23.25;59.95;101493.31;4998809;28;4103;-67
2023/08/22 07:16:33;;;;;;;;;;;;;;;23.25;59.88;101490.44;5001305;28;3988;-68
2023/08/22 07:19:02;;;;;;;;;;;;;;;23.25;59.86;101491.19;5000140;28;4480;-67
2023/08/22 07:21:29;;;;;;;;;;;;;;;23.24;59.78;101492.59;5001439;28;4205;-67
2023/08/22 07:23:55;;;;;;;;;;;;;;;23.26;59.63;101495.56;4998231;28;4062;-67
2023/08/22 07:26:22;;;;;;;;;;;;;;;23.26;59.68;101486.91;5000245;28;4156;-68
2023/08/22 07:28:48;;;;;;;;;;;;;;;23.26;59.50;101495.56;5001388;28;4147;-68
2023/08/22 07:31:15;;;;;;;;;;;;;;;23.26;59.40;101484.00;4999639;28;4292;-68
2023/08/22 07:33:41;;;;;;;;;;;;;;;23.26;59.44;101484.00;4999246;28;4139;-67
2023/08/22 07:36:15;;;;;;;;;;;;;;;23.28;59.27;101487.00;4999860;28;4427;-67
2023/08/22 07:38:42;;;;;;;;;;;;;;;23.28;59.51;101487.00;5001004;28;4085;-68
2023/08/22 07:41:10;;;;;;;;;;;;;;;23.30;59.34;101475.53;4997169;28;6260;-67
2023/08/22 07:43:36;;;;;;;;;;;;;;;23.29;59.44;101462.47;4999119;28;4254;-68
2023/08/22 07:46:03;;;;;;;;;;;;;;;23.30;59.49;101461.06;4998580;28;4287;-68
2023/08/22 07:48:29;;;;;;;;;;;;;;;23.30;59.32;101457.44;5013761;28;4534;-68
2023/08/22 07:50:55;;;;;;;;;;;;;;;23.33;59.47;101459.75;5002869;28;4249;-67
2023/08/22 07:53:24;;;;;;;;;;;;;;;23.35;59.44;101467.78;5001279;28;3927;-68
2023/08/22 07:55:50;;;;;;;;;;;;;;;23.36;59.48;101457.69;5000372;28;3994;-68
2023/08/22 07:58:17;;;;;;;;;;;;;;;23.36;59.32;101472.88;4998717;28;3962;-68
2023/08/22 08:00:47;;;;;;;;;;;;;;;23.36;59.64;101484.44;5000909;28;3988;-68
2023/08/22 08:03:13;;;;;;;;;;;;;;;23.37;59.39;101480.16;5002543;28;4318;-67
2023/08/22 08:05:40;;;;;;;;;;;;;;;23.37;59.35;101485.22;5003972;28;4134;-68
2023/08/22 08:08:07;;;;;;;;;;;;;;;23.37;59.23;101477.28;5000592;28;4298;-67
2023/08/22 08:10:35;;;;;;;;;;;;;;;23.39;59.26;101482.41;4998889;28;4054;-68
2023/08/22 08:13:01;;;;;;;;;;;;;;;23.39;59.10;101473.75;4997684;28;4114;-67
2023/08/22 08:15:28;;;;;;;;;;;;;;;23.39;59.19;101483.16;4999173;28;4037;-68
2023/08/22 08:17:55;;;;;;;;;;;;;;;23.39;59.14;101494.72;4999526;28;4326;-67
2023/08/22 08:20:22;;;;;;;;;;;;;;;23.40;59.20;101487.50;5004397;28;4022;-67
2023/08/22 08:22:48;;;;;;;;;;;;;;;23.41;59.07;101482.50;5003157;28;4203;-68
2023/08/22 08:25:14;;;;;;;;;;;;;;;23.41;59.06;101485.41;5002746;28;4160;-67
2023/08/22 08:27:41;;;;;;;;;;;;;;;23.41;59.34;101479.63;5002302;28;4173;-68
2023/08/22 08:30:10;;;;;;;;;;;;;;;23.41;59.60;101482.50;5000344;28;4127;-67
2023/08/22 08:32:36;;;;;;;;;;;;;;;23.41;59.31;101491.19;5002677;28;4145;-67
2023/08/22 08:35:04;;;;;;;;;;;;;;;23.41;59.65;101485.41;5007739;28;3974;-67
2023/08/22 08:37:31;;;;;;;;;;;;;;;23.41;59.47;101480.34;5007888;28;4100;-67
2023/08/22 08:39:57;;;;;;;;;;;;;;;23.42;59.63;101476.03;5002474;28;4060;-67
2023/08/22 08:42:24;;;;;;;;;;;;;;;23.41;59.87;101468.78;5005209;28;4137;-67
2023/08/22 08:44:50;;;;;;;;;;;;;;;23.41;59.98;101465.91;5005354;28;4229;-68
2023/08/22 08:47:16;;;;;;;;;;;;;;;23.42;59.52;101449.31;5004651;28;4332;-67
2023/08/22 08:49:43;;;;;;;;;;;;;;;23.42;59.47;101452.94;5003710;28;4045;-68
2023/08/22 08:52:12;;;;;;;;;;;;;;;23.42;59.38;101464.50;5009934;28;4026;-67
2023/08/22 08:54:38;;;;;;;;;;;;;;;23.42;59.41;101447.16;5003485;28;4088;-67
2023/08/22 08:57:05;;;;;;;;;;;;;;;23.42;59.18;101450.03;5002953;28;4225;-68
2023/08/22 08:59:31;;;;;;;;;;;;;;;23.44;59.23;101452.28;5002565;28;5166;-68
2023/08/22 09:01:59;;;;;;;;;;;;;;;23.43;59.41;101442.09;5001397;28;4383;-68
2023/08/22 09:04:25;;;;;;;;;;;;;;;23.44;59.52;101439.97;5003530;28;4177;-68
2023/08/22 09:06:52;;;;;;;;;;;;;;;23.46;59.55;101440.06;5001241;28;4174;-68
2023/08/22 09:09:18;;;;;;;;;;;;;;;23.45;59.47;101438.56;5001808;28;4129;-67
2023/08/22 09:11:45;;;;;;;;;;;;;;;23.46;59.45;101435.03;5008219;28;4229;-67
2023/08/22 09:14:19;;;;;;;;;;;;;;;23.47;59.47;101432.88;5005156;28;4221;-68
2023/08/22 09:16:46;;;;;;;;;;;;;;;23.46;59.61;101434.28;5006310;28;4321;-67
2023/08/22 09:19:13;;;;;;;;;;;;;;;23.48;59.65;101425.69;5004485;28;4021;-68
2023/08/22 09:21:39;;;;;;;;;;;;;;;23.50;59.72;101434.44;5011165;28;4340;-68
2023/08/22 09:24:08;;;;;;;;;;;;;;;23.48;59.75;101422.78;5009817;28;4063;-67
2023/08/22 09:26:34;;;;;;;;;;;;;;;23.49;60.05;101427.91;5007338;28;4235;-67
2023/08/22 09:29:07;;;;;;;;;;;;;;;23.49;59.91;101412.72;5002982;28;4170;-67
2023/08/22 09:31:33;;;;;;;;;;;;;;;23.50;60.22;101422.88;5003464;28;4102;-68
2023/08/22 09:34:05;;;;;;;;;;;;;;;23.50;60.34;101414.97;5012404;28;4147;-67
2023/08/22 09:36:31;;;;;;;;;;;;;;;23.50;60.22;101417.09;5003372;28;4017;-68
2023/08/22 09:38:58;;;;;;;;;;;;;;;23.51;60.23;101413.56;5006247;28;4332;-67
2023/08/22 09:41:24;;;;;;;;;;;;;;;23.51;60.21;101407.78;5006039;28;4092;-67
2023/08/22 09:44:03;;;;;;;;;;;;;;;23.51;60.13;101407.78;5000461;28;4163;-67
2023/08/22 09:46:29;;;;;;;;;;;;;;;23.52;60.33;101420.06;5006950;28;3934;-68
2023/08/22 09:48:56;;;;;;;;;;;;;;;23.53;60.61;101415.78;5001082;28;4046;-67
2023/08/22 09:51:23;;;;;;;;;;;;;;;23.52;60.44;101414.28;5001081;28;4198;-67
2023/08/22 09:53:51;;;;;;;;;;;;;;;23.53;60.48;101416.53;5004550;28;4149;-68
2023/08/22 09:56:18;;;;;;;;;;;;;;;23.54;60.40;101417.28;5009054;28;4070;-67
2023/08/22 09:58:44;;;;;;;;;;;;;;;23.53;60.36;101412.91;5002394;28;4198;-67
2023/08/22 10:01:12;;;;;;;;;;;;;;;23.53;60.50;101410.75;5004660;28;4234;-67
2023/08/22 10:03:38;;;;;;;;;;;;;;;23.53;60.26;101404.97;5011531;28;4052;-68
2023/08/22 10:06:05;;;;;;;;;;;;;;;23.54;60.52;101405.72;5002934;28;4127;-68
2023/08/22 10:08:31;;;;;;;;;;;;;;;23.54;60.43;101411.50;5005366;28;4251;-67
2023/08/22 10:10:58;;;;;;;;;;;;;;;23.54;60.53;101411.50;5001316;28;4164;-67
2023/08/22 10:13:24;;;;;;;;;;;;;;;23.54;60.36;101409.34;5005460;28;4023;-67
2023/08/22 10:15:51;;;;;;;;;;;;;;;23.56;60.27;101411.59;4999859;28;4458;-68
2023/08/22 10:18:21;;;;;;;;;;;;;;;23.56;60.25;101417.38;5002769;28;4182;-68
2023/08/22 10:20:48;;;;;;;;;;;;;;;23.55;60.53;101415.88;5000720;28;4532;-67
2023/08/22 10:23:15;;;;;;;;;;;;;;;23.56;60.50;101415.22;5001020;28;4213;-67
2023/08/22 10:25:48;;;;;;;;;;;;;;;23.57;60.52;101418.84;5001815;28;3986;-67
2023/08/22 10:28:14;;;;;;;;;;;;;;;23.57;60.44;101410.16;5000855;28;4042;-67
2023/08/22 10:30:59;;;;;;;;;;;;;;;23.57;60.29;101418.84;5004975;28;4527;-68
2023/08/22 10:33:26;;;;;;;;;;;;;;;23.58;60.49;101417.44;5016824;28;4089;-68
2023/08/22 10:36:05;;;;;;;;;;;;;;;23.55;60.56;101424.56;4998818;28;4349;-67
2023/08/22 10:38:46;;;;;;;;;;;;;;;23.58;60.32;101426.13;5000011;28;4096;-68
2023/08/22 10:41:13;;;;;;;;;;;;;;;23.62;60.40;101417.63;5004983;28;4287;-68
2023/08/22 10:43:39;;;;;;;;;;;;;;;23.61;60.67;101416.84;5003157;28;4112;-68
2023/08/22 10:46:06;;;;;;;;;;;;;;;23.61;60.50;101416.84;5000231;28;4210;-67
2023/08/22 10:48:34;;;;;;;;;;;;;;;23.63;60.47;101419.09;5004784;28;4155;-67
2023/08/22 10:51:04;;;;;;;;;;;;;;;23.61;60.63;101416.13;5000918;28;4122;-67
2023/08/22 10:53:30;;;;;;;;;;;;;;;23.64;60.55;101417.72;4999804;28;4065;-67
2023/08/22 10:55:59;;;;;;;;;;;;;;;23.64;60.50;101414.81;5001480;28;4040;-67
2023/08/22 10:58:31;;;;;;;;;;;;;;;23.63;60.55;101413.31;5000558;28;4062;-67
2023/08/22 11:00:58;;;;;;;;;;;;;;;23.66;60.59;101412.00;4997195;28;4188;-67
2023/08/22 11:03:24;;;;;;;;;;;;;;;23.69;60.52;101409.94;5001973;28;4012;-68
2023/08/22 11:05:51;;;;;;;;;;;;;;;23.67;60.61;101404.81;5001805;28;4336;-66
2023/08/22 11:08:17;;;;;;;;;;;;;;;23.66;60.52;101417.78;5001892;28;4038;-70
2023/08/22 11:10:43;;;;;;;;;;;;;;;23.69;60.10;101416.47;5002476;28;4159;-65
2023/08/22 11:13:10;;;;;;;;;;;;;;;23.70;60.02;101417.94;4999935;28;4166;-65
2023/08/22 11:15:36;;;;;;;;;;;;;;;23.69;59.95;101419.38;5001505;28;4067;-65
2023/08/22 11:18:04;;;;;;;;;;;;;;;23.69;59.92;101416.47;5001620;28;4556;-65
2023/08/22 11:20:30;;;;;;;;;;;;;;;23.70;59.99;101415.06;5001305;28;4498;-65
2023/08/22 11:22:57;;;;;;;;;;;;;;;23.70;60.04;101412.16;5011094;28;4407;-65
2023/08/22 11:25:24;;;;;;;;;;;;;;;23.71;59.99;101413.66;5001150;28;4245;-65
2023/08/22 11:27:50;;;;;;;;;;;;;;;23.71;60.10;101422.34;4999991;28;4306;-65
2023/08/22 11:30:17;;;;;;;;;;;;;;;23.71;60.30;101422.34;5004100;28;4222;-65
2023/08/22 11:32:43;;;;;;;;;;;;;;;23.71;60.13;101421.56;5000674;28;3921;-65
2023/08/22 11:35:11;;;;;;;;;;;;;;;23.72;60.16;101426.72;5006360;28;4042;-65
2023/08/22 11:37:38;;;;;;;;;;;;;;;23.73;60.19;101428.22;5001957;28;4101;-65
2023/08/22 11:40:09;;;;;;;;;;;;;;;23.73;60.36;101428.22;5003595;28;4143;-65
2023/08/22 11:42:36;;;;;;;;;;;;;;;23.73;60.41;101427.44;5001672;28;4059;-65
2023/08/22 11:45:10;;;;;;;;;;;;;;;23.73;60.31;101419.53;4982495;28;4023;-65
2023/08/22 11:47:36;;;;;;;;;;;;;;;23.73;60.36;101419.53;5002744;28;4207;-65
2023/08/22 11:50:03;;;;;;;;;;;;;;;23.76;60.25;101426.19;4999059;28;4227;-65
2023/08/22 11:52:30;;;;;;;;;;;;;;;23.76;60.44;101420.38;5001939;28;4140;-65
2023/08/22 11:55:03;;;;;;;;;;;;;;;23.75;60.68;101419.63;4999905;28;4147;-65
2023/08/22 11:57:30;;;;;;;;;;;;;;;23.75;60.55;101422.50;5002192;28;4107;-65
2023/08/22 11:59:58;;;;;;;;;;;;;;;23.72;60.65;101426.72;5000985;28;4172;-65
2023/08/22 12:02:25;;;;;;;;;;;;;;;23.76;60.70;101424.03;4998924;28;4387;-65
2023/08/22 12:04:55;;;;;;;;;;;;;;;23.78;60.60;101415.44;5000562;28;4136;-65
2023/08/22 12:07:22;;;;;;;;;;;;;;;23.78;60.64;101418.31;5002479;28;4134;-65
2023/08/22 12:09:57;;;;;;;;;;;;;;;23.77;60.79;101421.88;5001277;28;4151;-67
2023/08/22 12:12:23;;;;;;;;;;;;;;;23.77;60.65;101422.59;5000810;28;4145;-65
2023/08/22 12:14:50;;;;;;;;;;;;;;;23.81;60.80;101422.03;5003806;28;4019;-65
2023/08/22 12:17:16;;;;;;;;;;;;;;;23.79;60.94;101416.91;5000084;28;4127;-65
2023/08/22 12:19:43;;;;;;;;;;;;;;;23.80;60.59;101427.09;5003454;28;4140;-65
2023/08/22 12:22:10;;;;;;;;;;;;;;;23.80;60.95;101429.97;5002993;28;4460;-65
2023/08/22 12:24:36;;;;;;;;;;;;;;;23.80;60.95;101426.31;5001322;28;4102;-65
2023/08/22 12:27:03;;;;;;;;;;;;;;;23.80;61.06;101421.31;4999845;28;4154;-65
2023/08/22 12:29:29;;;;;;;;;;;;;;;23.80;60.96;101421.31;4999192;28;4181;-65
2023/08/22 12:31:55;;;;;;;;;;;;;;;23.80;61.12;101432.88;4998369;28;4123;-65
2023/08/22 12:34:22;;;;;;;;;;;;;;;23.81;60.98;101428.56;4999156;28;4053;-65
2023/08/22 12:36:48;;;;;;;;;;;;;;;23.81;61.08;101428.56;5001363;28;4109;-65
2023/08/22 12:39:15;;;;;;;;;;;;;;;23.81;61.26;101431.44;4998901;28;4485;-65
2023/08/22 12:41:41;;;;;;;;;;;;;;;23.81;61.07;101434.34;4999718;28;3955;-65
2023/08/22 12:44:07;;;;;;;;;;;;;;;23.82;61.29;101432.19;4999442;28;4025;-65
2023/08/22 12:46:34;;;;;;;;;;;;;;;23.82;60.95;101435.84;5000833;28;3986;-65
2023/08/22 12:49:00;;;;;;;;;;;;;;;23.82;61.35;101435.09;4999084;28;4300;-65